Time;durP1;ratioP1;P1;durP2;ratioP2;P2;SDS_P1;SDS_P2;PMS_P1;PMS_P2;Temp;Humidity;BMP_temperature;BMP_pressure;BME280_temperature;BME280_humidity;BME280_pressure;Samples;Min_cycle;Max_cycle;Signal;HPM_P1;HPM_P2
2021/05/14 00:01:16;;;;;;;2.37;1.67;;;13.50;84.80;;;;;;10498398;28;20246;-77
2021/05/14 00:06:17;;;;;;;3.80;1.90;;;13.50;83.40;;;;;;10498272;28;20189;-77
2021/05/14 00:11:20;;;;;;;1.60;1.50;;;13.50;83.90;;;;;;10504035;28;20242;-78
2021/05/14 00:16:22;;;;;;;1.20;1.20;;;13.50;85.20;;;;;;10503420;28;20745;-78
2021/05/14 00:21:23;;;;;;;1.40;1.30;;;13.50;84.70;;;;;;10493911;28;20320;-79
2021/05/14 00:26:26;;;;;;;1.40;1.30;;;13.50;86.20;;;;;;10492593;28;20690;-79
2021/05/14 00:31:28;;;;;;;1.20;1.10;;;13.50;85.60;;;;;;10511668;28;20273;-78
2021/05/14 00:36:30;;;;;;;1.77;1.37;;;13.50;85.80;;;;;;10480597;28;20203;-78
2021/05/14 00:41:32;;;;;;;1.50;1.40;;;13.60;83.60;;;;;;10510423;28;20841;-78
2021/05/14 00:46:34;;;;;;;1.37;1.27;;;13.60;84.70;;;;;;10497799;28;20204;-78
2021/05/14 00:51:36;;;;;;;1.57;1.47;;;13.60;83.70;;;;;;10479237;28;20232;-79
2021/05/14 00:56:39;;;;;;;2.37;1.70;;;13.60;83.60;;;;;;10513091;28;20200;-78
2021/05/14 01:01:40;;;;;;;2.90;1.50;;;13.50;82.80;;;;;;10494833;28;20855;-78
2021/05/14 01:06:42;;;;;;;1.60;1.50;;;13.50;82.90;;;;;;10479375;28;20275;-79
2021/05/14 01:11:45;;;;;;;1.73;1.63;;;13.40;84.30;;;;;;10464056;28;20285;-78
2021/05/14 01:16:46;;;;;;;1.67;1.57;;;13.40;83.90;;;;;;10479766;28;20672;-78
2021/05/14 01:21:49;;;;;;;1.77;1.40;;;13.30;83.80;;;;;;10480412;28;20300;-78
2021/05/14 01:26:50;;;;;;;1.33;1.23;;;13.30;84.20;;;;;;10479200;28;20223;-78
2021/05/14 01:31:52;;;;;;;1.67;1.03;;;13.30;84.50;;;;;;10478491;28;20598;-78
2021/05/14 01:36:55;;;;;;;1.67;1.57;;;13.20;84.00;;;;;;10497427;28;20278;-79
2021/05/14 01:41:56;;;;;;;1.60;1.50;;;13.20;85.90;;;;;;10496529;28;20251;-79
2021/05/14 01:46:58;;;;;;;2.30;2.10;;;13.20;85.30;;;;;;10498696;28;20207;-79
2021/05/14 01:52:01;;;;;;;1.93;1.40;;;13.20;85.50;;;;;;10499475;28;20288;-79
2021/05/14 01:57:03;;;;;;;1.60;1.50;;;13.20;86.70;;;;;;10496778;28;20201;-78
2021/05/14 02:02:04;;;;;;;1.70;1.60;;;13.20;85.20;;;;;;10480021;28;20303;-79
2021/05/14 02:07:07;;;;;;;2.37;2.10;;;13.20;86.30;;;;;;10486615;28;20249;-78
2021/05/14 02:12:09;;;;;;;1.70;1.60;;;13.20;86.40;;;;;;10505152;28;20227;-78
2021/05/14 02:17:10;;;;;;;2.97;1.70;;;13.20;86.60;;;;;;10504923;28;20200;-79
2021/05/14 02:22:15;;;;;;;1.57;1.47;;;13.10;87.10;;;;;;10487510;28;20221;-79
2021/05/14 02:27:16;;;;;;;1.27;1.10;;;13.00;87.80;;;;;;10488090;28;20231;-79
2021/05/14 02:32:18;;;;;;;1.80;1.70;;;12.90;88.50;;;;;;10506022;28;20315;-79
2021/05/14 02:37:20;;;;;;;2.53;1.80;;;12.80;89.30;;;;;;10509145;28;20228;-78
2021/05/14 02:42:22;;;;;;;1.60;1.50;;;12.80;90.10;;;;;;10503830;28;20220;-78
2021/05/14 02:47:24;;;;;;;1.80;1.70;;;12.90;90.20;;;;;;10503270;28;20198;-79
2021/05/14 02:52:26;;;;;;;1.90;1.70;;;12.90;90.10;;;;;;10502643;28;20224;-78
2021/05/14 02:57:30;;;;;;;1.57;1.50;;;13.00;90.60;;;;;;10485136;28;20732;-79
2021/05/14 03:02:31;;;;;;;1.60;1.50;;;13.00;90.00;;;;;;10504755;28;20229;-78
2021/05/14 03:07:34;;;;;;;1.80;1.70;;;13.00;90.00;;;;;;10503541;28;20292;-79
2021/05/14 03:12:36;;;;;;;2.17;2.00;;;13.10;87.40;;;;;;10503013;28;20307;-78
2021/05/14 03:17:37;;;;;;;2.03;1.80;;;13.00;89.00;;;;;;10466362;28;20208;-78
2021/05/14 03:22:40;;;;;;;1.73;1.63;;;13.10;87.00;;;;;;10483405;28;20269;-78
2021/05/14 03:27:41;;;;;;;1.70;1.60;;;13.00;87.40;;;;;;10483692;28;20291;-79
2021/05/14 03:32:44;;;;;;;2.17;1.97;;;12.90;88.10;;;;;;10501319;28;20632;-79
2021/05/14 03:37:47;;;;;;;2.10;1.90;;;12.90;87.80;;;;;;10483276;28;20627;-79
2021/05/14 03:42:48;;;;;;;1.90;1.80;;;12.80;87.80;;;;;;10500605;28;20573;-79
2021/05/14 03:47:50;;;;;;;2.63;2.40;;;12.80;89.80;;;;;;10501853;28;20204;-78
2021/05/14 03:52:53;;;;;;;3.30;2.00;;;12.80;89.10;;;;;;10486921;28;20235;-78
2021/05/14 03:57:54;;;;;;;4.60;3.10;;;12.80;88.70;;;;;;10500472;28;20283;-79
2021/05/14 04:02:56;;;;;;;1.37;1.30;;;12.80;89.50;;;;;;10483394;28;20637;-79
2021/05/14 04:07:59;;;;;;;1.80;1.70;;;12.70;88.30;;;;;;10481432;28;20279;-79
2021/05/14 04:18:20;;;;;;;18.63;11.10;;;12.60;87.30;;;;;;10513554;28;20200;-79
2021/05/14 04:23:23;;;;;;;1.53;1.43;;;12.50;87.00;;;;;;10499292;28;20283;-79
2021/05/14 04:28:24;;;;;;;2.10;1.77;;;12.40;88.60;;;;;;10496631;28;20211;-79
2021/05/14 04:33:26;;;;;;;1.70;1.60;;;12.30;89.70;;;;;;10482253;28;20247;-79
2021/05/14 04:38:28;;;;;;;1.80;1.70;;;12.20;90.90;;;;;;10505690;28;20234;-79
2021/05/14 04:43:30;;;;;;;2.20;1.87;;;12.10;91.40;;;;;;10480536;28;20345;-78
2021/05/14 04:48:32;;;;;;;2.30;2.17;;;12.10;91.40;;;;;;10497467;28;20273;-78
2021/05/14 04:53:36;;;;;;;2.30;1.77;;;12.00;91.10;;;;;;10479803;28;20216;-78
2021/05/14 04:58:37;;;;;;;2.00;1.90;;;12.00;90.90;;;;;;10497831;28;20216;-79
2021/05/14 05:03:42;;;;;;;1.70;1.60;;;12.00;91.90;;;;;;10479611;28;20197;-78
2021/05/14 05:08:45;;;;;;;2.20;1.50;;;12.00;91.50;;;;;;10497343;28;20216;-78
2021/05/14 05:13:46;;;;;;;2.33;2.23;;;12.00;92.40;;;;;;10497246;28;20598;-78
2021/05/14 05:18:48;;;;;;;2.23;1.80;;;12.00;93.00;;;;;;10496614;28;20216;-78
2021/05/14 05:23:51;;;;;;;2.43;2.23;;;12.10;92.50;;;;;;10479501;28;20659;-79
2021/05/14 05:28:52;;;;;;;2.30;2.07;;;12.10;92.80;;;;;;10495756;28;20224;-78
2021/05/14 05:33:54;;;;;;;2.20;2.00;;;12.10;92.80;;;;;;10478384;28;20223;-78
2021/05/14 05:38:57;;;;;;;3.00;2.10;;;12.10;92.70;;;;;;10496956;28;20227;-79
2021/05/14 05:43:58;;;;;;;1.80;1.70;;;12.10;92.50;;;;;;10478328;28;20661;-78
2021/05/14 05:49:00;;;;;;;2.00;1.83;;;12.20;92.50;;;;;;10497395;28;20688;-78
2021/05/14 05:54:02;;;;;;;1.73;1.63;;;12.30;92.60;;;;;;10505114;28;20247;-78
2021/05/14 05:59:06;;;;;;;2.33;2.13;;;12.40;92.10;;;;;;10478215;28;20295;-78
2021/05/14 06:04:07;;;;;;;1.63;1.53;;;12.60;92.30;;;;;;10495867;28;20254;-79
2021/05/14 06:09:10;;;;;;;1.20;1.10;;;12.70;92.30;;;;;;10495634;28;20226;-79
2021/05/14 06:14:11;;;;;;;2.20;1.70;;;12.80;92.20;;;;;;10477770;28;20216;-79
2021/05/14 06:19:14;;;;;;;1.80;1.53;;;12.90;91.40;;;;;;10495859;28;20312;-79
2021/05/14 06:24:18;;;;;;;1.67;1.57;;;13.00;91.60;;;;;;10479389;28;20204;-78
2021/05/14 06:29:21;;;;;;;1.60;1.50;;;13.20;91.60;;;;;;10478408;28;20576;-79
2021/05/14 06:34:22;;;;;;;1.20;1.20;;;13.50;91.30;;;;;;10481970;28;20224;-78
2021/05/14 06:39:25;;;;;;;1.37;1.27;;;13.60;91.20;;;;;;10481307;28;20281;-78
2021/05/14 06:44:28;;;;;;;1.10;1.10;;;13.80;91.20;;;;;;10497458;28;20235;-78
2021/05/14 06:49:30;;;;;;;1.50;1.40;;;14.00;90.50;;;;;;10497521;28;20227;-78
2021/05/14 06:54:32;;;;;;;2.73;1.00;;;14.20;90.00;;;;;;10483674;28;20223;-79
2021/05/14 06:59:34;;;;;;;1.73;1.30;;;14.40;89.00;;;;;;10501663;28;20244;-78
2021/05/14 07:04:36;;;;;;;1.20;1.10;;;14.80;88.70;;;;;;10484004;28;20717;-79
2021/05/14 07:09:38;;;;;;;0.97;0.90;;;15.10;87.90;;;;;;10487623;28;20235;-79
2021/05/14 07:14:40;;;;;;;1.23;1.10;;;15.40;85.80;;;;;;10506196;28;20480;-80
2021/05/14 07:19:43;;;;;;;0.90;0.90;;;15.70;87.30;;;;;;10505994;28;20220;-79
2021/05/14 07:24:45;;;;;;;2.00;1.27;;;16.00;82.30;;;;;;10519221;28;20192;-79
2021/05/14 07:29:47;;;;;;;1.20;1.10;;;16.30;80.00;;;;;;10525000;28;20274;-79
2021/05/14 07:34:48;;;;;;;1.47;1.27;;;16.80;77.90;;;;;;10509080;28;20275;-78
2021/05/14 07:39:53;;;;;;;1.50;1.40;;;17.20;80.90;;;;;;10505519;28;20224;-78
2021/05/14 07:44:54;;;;;;;1.20;1.20;;;17.50;76.90;;;;;;10501190;28;20203;-79
2021/05/14 07:49:56;;;;;;;1.20;1.20;;;17.60;78.00;;;;;;10502171;28;20297;-79
2021/05/14 07:55:00;;;;;;;4.83;1.40;;;18.20;77.70;;;;;;10505691;28;20224;-78
2021/05/14 08:00:02;;;;;;;1.13;1.13;;;18.40;76.40;;;;;;10483382;28;20230;-79
2021/05/14 08:05:09;;;;;;;1.50;1.40;;;18.50;76.00;;;;;;10501673;28;20280;-78
2021/05/14 08:10:13;;;;;;;1.10;1.10;;;18.50;73.70;;;;;;10465308;28;20228;-78
2021/05/14 08:15:15;;;;;;;1.20;1.10;;;18.30;73.30;;;;;;10500435;28;20224;-78
2021/05/14 08:20:17;;;;;;;1.30;1.30;;;18.00;72.40;;;;;;10500382;28;20212;-79
2021/05/14 08:25:20;;;;;;;1.63;1.20;;;17.70;75.00;;;;;;10501493;28;20192;-79
2021/05/14 08:30:21;;;;;;;0.90;0.90;;;18.20;74.00;;;;;;10500545;28;20307;-79
2021/05/14 08:35:23;;;;;;;1.07;1.07;;;18.80;69.30;;;;;;10486564;28;20709;-79
2021/05/14 08:40:26;;;;;;;1.20;1.10;;;19.00;65.00;;;;;;10498683;28;20221;-78
2021/05/14 08:45:28;;;;;;;1.33;1.00;;;18.60;68.10;;;;;;10480959;28;20279;-78
2021/05/14 08:50:30;;;;;;;1.10;1.00;;;18.40;71.00;;;;;;10498514;28;20591;-78
2021/05/14 08:55:33;;;;;;;0.90;0.90;;;18.80;71.80;;;;;;10498282;28;20220;-78
2021/05/14 09:00:34;;;;;;;1.50;1.10;;;19.40;68.50;;;;;;10480478;28;20575;-79
2021/05/14 09:05:37;;;;;;;1.20;1.20;;;19.40;69.50;;;;;;10463393;28;20246;-78
2021/05/14 09:10:39;;;;;;;1.17;1.07;;;19.10;69.30;;;;;;10481190;28;20277;-78
2021/05/14 09:15:41;;;;;;;1.20;1.10;;;18.90;68.30;;;;;;10497688;28;20228;-78
2021/05/14 09:20:46;;;;;;;1.27;1.10;;;18.90;69.00;;;;;;10479790;28;20224;-79
2021/05/14 09:25:51;;;;;;;1.30;1.20;;;18.80;67.40;;;;;;10485329;28;20197;-78
2021/05/14 09:31:00;;;;;;;1.20;1.20;;;18.60;69.60;;;;;;10473475;28;20212;-79
2021/05/14 09:36:04;;;;;;;1.60;1.50;;;18.30;69.80;;;;;;10496525;28;20220;-78
2021/05/14 09:41:07;;;;;;;3.33;1.17;;;18.00;72.00;;;;;;10497026;28;20228;-78
2021/05/14 09:46:27;;;;;;;1.70;1.43;;;17.70;77.40;;;;;;10461963;28;20193;-78
2021/05/14 09:51:31;;;;;;;1.67;1.10;;;17.50;81.10;;;;;;10518988;22;20236;-77
2021/05/14 09:56:34;;;;;;;1.67;1.00;;;17.60;82.40;;;;;;10458600;28;20663;-77
2021/05/14 10:01:36;;;;;;;1.03;1.00;;;17.90;78.90;;;;;;10475314;28;20707;-77
2021/05/14 10:06:38;;;;;;;0.97;0.97;;;18.50;72.30;;;;;;10493630;28;20644;-77
2021/05/14 10:11:41;;;;;;;1.30;0.90;;;18.70;70.00;;;;;;10474777;28;20220;-77
2021/05/14 10:16:43;;;;;;;2.83;1.50;;;18.80;73.60;;;;;;10494380;28;20204;-78
2021/05/14 10:21:44;;;;;;;0.80;0.80;;;18.90;74.30;;;;;;10506960;28;20298;-77
2021/05/14 10:26:47;;;;;;;1.13;1.03;;;18.80;67.70;;;;;;10478850;28;20287;-77
2021/05/14 10:31:49;;;;;;;2.70;1.37;;;18.50;68.00;;;;;;10499924;28;20597;-77
2021/05/14 10:36:55;;;;;;;2.80;2.60;;;18.00;72.20;;;;;;10483175;28;20201;-77
2021/05/14 10:42:07;;;;;;;3.43;3.23;;;17.40;89.10;;;;;;10483970;28;20247;-77
2021/05/14 10:47:48;;;;;;;3.57;3.37;;;16.70;92.40;;;;;;10500045;28;20204;-77
2021/05/14 10:53:28;;;;;;;5.97;5.60;;;15.90;95.30;;;;;;10482860;28;20311;-77
2021/05/14 10:58:48;;;;;;;6.10;5.90;;;15.30;98.00;;;;;;10481984;28;20668;-78
2021/05/14 11:03:50;;;;;;;6.07;5.57;;;15.00;99.90;;;;;;10508892;28;20285;-77
2021/05/14 11:08:59;;;;;;;5.43;5.10;;;15.00;99.90;;;;;;10499082;28;20238;-77
2021/05/14 11:14:16;;;;;;;3.53;3.33;;;15.10;99.90;;;;;;10482318;28;20232;-77
2021/05/14 11:19:23;;;;;;;4.03;3.60;;;15.20;99.90;;;;;;10480883;28;20224;-78
2021/05/14 11:24:33;;;;;;;4.97;4.67;;;15.20;99.90;;;;;;10481518;28;20676;-78
2021/05/14 11:29:38;;;;;;;3.90;3.80;;;15.10;99.90;;;;;;10498722;28;20224;-77
2021/05/14 11:34:54;;;;;;;4.50;4.20;;;15.00;99.90;;;;;;10497663;28;20601;-77
2021/05/14 11:39:57;;;;;;;4.10;3.90;;;15.10;99.90;;;;;;10497426;28;20224;-77
2021/05/14 11:45:02;;;;;;;3.27;3.17;;;15.50;99.90;;;;;;10498579;28;20185;-77
2021/05/14 11:50:08;;;;;;;3.90;3.70;;;15.90;99.90;;;;;;10497706;28;20239;-77
2021/05/14 11:55:12;;;;;;;2.30;2.30;;;16.30;99.90;;;;;;10479878;28;20250;-77
2021/05/14 12:00:16;;;;;;;2.03;1.93;;;16.60;99.00;;;;;;10498325;28;20217;-77
2021/05/14 12:05:19;;;;;;;1.97;1.87;;;16.70;99.90;;;;;;10497553;28;20222;-77
2021/05/14 12:10:21;;;;;;;2.47;2.20;;;16.70;99.90;;;;;;10498221;28;20222;-78
2021/05/14 12:15:25;;;;;;;3.50;1.97;;;16.50;99.90;;;;;;10498159;28;20224;-77
2021/05/14 12:20:32;;;;;;;3.20;2.57;;;16.30;99.90;;;;;;10497807;28;20676;-78
2021/05/14 12:25:45;;;;;;;1.87;1.73;;;16.10;99.90;;;;;;10479365;28;20200;-78
2021/05/14 12:30:48;;;;;;;1.83;1.73;;;15.90;99.90;;;;;;10463846;28;20773;-78
2021/05/14 12:35:58;;;;;;;1.40;1.40;;;15.90;99.90;;;;;;10463054;28;20232;-78
2021/05/14 12:40:59;;;;;;;1.20;1.20;;;16.10;99.90;;;;;;10478445;28;20220;-78
2021/05/14 12:46:05;;;;;;;1.53;1.37;;;16.20;99.50;;;;;;10495370;28;20207;-78
2021/05/14 12:51:07;;;;;;;1.43;1.33;;;16.10;96.20;;;;;;10478118;28;20307;-78
2021/05/14 12:56:26;;;;;;;1.40;1.30;;;16.10;97.40;;;;;;10494671;28;20228;-78
2021/05/14 13:01:29;;;;;;;2.10;1.60;;;16.10;99.60;;;;;;10496200;28;20692;-78
2021/05/14 13:06:30;;;;;;;1.33;1.27;;;16.10;99.80;;;;;;10478138;28;20196;-78
2021/05/14 13:11:36;;;;;;;1.07;1.07;;;16.00;97.80;;;;;;10494469;28;20219;-78
2021/05/14 13:16:38;;;;;;;1.70;1.60;;;16.10;95.80;;;;;;10494889;28;20225;-78
2021/05/14 13:21:40;;;;;;;1.70;1.47;;;16.10;97.00;;;;;;10475223;28;20224;-78
2021/05/14 13:26:41;;;;;;;1.47;1.37;;;16.20;93.00;;;;;;10476662;28;20682;-78
2021/05/14 13:31:44;;;;;;;2.00;1.43;;;16.30;94.50;;;;;;10494545;28;20270;-78
2021/05/14 13:36:46;;;;;;;1.87;1.40;;;16.30;93.60;;;;;;10493496;28;20224;-78
2021/05/14 13:41:48;;;;;;;1.20;1.10;;;16.40;97.30;;;;;;10493886;28;20228;-78
2021/05/14 13:46:51;;;;;;;1.17;1.13;;;16.70;95.10;;;;;;10493014;28;20219;-78
2021/05/14 13:51:52;;;;;;;1.80;1.30;;;17.00;93.40;;;;;;10493353;28;20228;-78
2021/05/14 13:56:54;;;;;;;2.07;1.43;;;17.10;97.30;;;;;;10493036;28;20204;-78
2021/05/14 14:01:56;;;;;;;1.30;1.20;;;17.00;94.80;;;;;;10484370;28;20220;-78
2021/05/14 14:06:58;;;;;;;3.00;1.30;;;17.10;96.00;;;;;;10500710;28;20208;-78
2021/05/14 14:12:01;;;;;;;1.80;1.20;;;17.30;96.20;;;;;;10483883;28;20209;-79
2021/05/14 14:17:04;;;;;;;1.50;1.13;;;17.50;94.60;;;;;;10483522;28;20219;-78
2021/05/14 14:22:06;;;;;;;1.20;1.10;;;17.60;94.40;;;;;;10498889;28;20614;-78
2021/05/14 14:27:08;;;;;;;1.17;1.07;;;17.40;96.20;;;;;;10515294;28;20287;-78
2021/05/14 14:32:10;;;;;;;1.20;1.10;;;17.30;92.40;;;;;;10506443;28;20259;-78
2021/05/14 14:37:12;;;;;;;1.30;1.20;;;17.20;93.80;;;;;;10500489;28;20200;-78
2021/05/14 14:42:14;;;;;;;1.87;1.40;;;17.30;93.00;;;;;;10500731;28;20217;-78
2021/05/14 14:47:17;;;;;;;4.23;2.30;;;17.40;88.50;;;;;;10500272;28;20259;-78
2021/05/14 14:52:19;;;;;;;1.30;1.00;;;17.70;90.40;;;;;;10500302;28;20234;-78
2021/05/14 14:57:21;;;;;;;1.10;1.03;;;17.90;90.10;;;;;;10505073;28;20203;-78
2021/05/14 15:02:24;;;;;;;1.00;1.00;;;18.00;90.10;;;;;;10513409;28;20284;-78
2021/05/14 15:07:26;;;;;;;1.00;1.00;;;18.10;87.00;;;;;;10512572;28;20671;-78
2021/05/14 15:12:27;;;;;;;1.40;1.20;;;18.30;87.90;;;;;;10514323;28;20259;-78
2021/05/14 15:17:30;;;;;;;2.57;1.13;;;18.20;88.20;;;;;;10513864;28;20599;-78
2021/05/14 15:22:31;;;;;;;1.77;1.20;;;18.00;90.50;;;;;;10504442;28;20227;-78
2021/05/14 15:27:33;;;;;;;1.37;1.27;;;18.00;85.40;;;;;;10501655;28;20208;-78
2021/05/14 15:32:36;;;;;;;1.30;1.10;;;18.00;88.70;;;;;;10499690;28;20582;-77
2021/05/14 15:37:38;;;;;;;1.33;1.00;;;17.90;90.40;;;;;;10463357;28;20212;-77
2021/05/14 15:42:39;;;;;;;1.27;1.17;;;17.80;82.80;;;;;;10480394;28;20310;-77
2021/05/14 15:47:42;;;;;;;3.47;1.10;;;17.70;85.30;;;;;;10497131;28;20259;-77
2021/05/14 15:52:44;;;;;;;0.87;0.87;;;17.80;87.60;;;;;;10484552;28;20307;-77
2021/05/14 15:57:45;;;;;;;3.53;1.37;;;18.00;78.30;;;;;;10490953;28;20584;-77
2021/05/14 16:02:52;;;;;;;1.17;1.00;;;18.10;74.60;;;;;;10496707;28;20307;-77
2021/05/14 16:07:53;;;;;;;3.90;1.50;;;18.20;76.90;;;;;;10496384;28;20204;-77
2021/05/14 16:12:55;;;;;;;4.40;1.10;;;18.20;77.40;;;;;;10495867;28;20217;-77
2021/05/14 16:18:01;;;;;;;1.97;1.17;;;18.30;77.10;;;;;;10495286;28;20196;-77
2021/05/14 16:23:05;;;;;;;1.60;1.20;;;18.30;76.30;;;;;;10479295;28;20224;-77
2021/05/14 16:28:09;;;;;;;1.20;1.10;;;18.10;77.70;;;;;;10478244;28;20733;-77
2021/05/14 16:33:12;;;;;;;0.93;0.93;;;17.90;78.90;;;;;;10479692;28;20216;-77
2021/05/14 16:38:13;;;;;;;1.60;0.77;;;17.70;78.60;;;;;;10495116;28;20200;-77
2021/05/14 16:43:15;;;;;;;2.30;1.37;;;17.60;76.30;;;;;;10495457;28;20642;-77
2021/05/14 16:48:18;;;;;;;1.10;1.00;;;17.40;79.00;;;;;;10494292;28;20541;-77
2021/05/14 16:53:19;;;;;;;1.10;1.10;;;17.30;78.60;;;;;;10495317;28;20228;-77
2021/05/14 16:58:21;;;;;;;2.17;1.20;;;17.20;80.10;;;;;;10493852;28;20192;-77
2021/05/14 17:03:24;;;;;;;1.10;1.00;;;17.10;79.30;;;;;;10476700;28;20691;-77
2021/05/14 17:08:25;;;;;;;1.30;1.20;;;17.00;77.40;;;;;;10493654;28;20201;-77
2021/05/14 17:13:27;;;;;;;2.43;1.27;;;17.00;78.80;;;;;;10493641;28;20224;-77
2021/05/14 17:18:30;;;;;;;1.30;1.20;;;17.00;83.40;;;;;;10459495;28;20201;-77
2021/05/14 17:23:31;;;;;;;1.10;1.07;;;17.00;82.10;;;;;;10493790;28;20231;-77
2021/05/14 17:28:33;;;;;;;4.23;1.23;;;17.00;84.30;;;;;;10493975;28;20257;-77
2021/05/14 17:33:35;;;;;;;1.17;1.10;;;17.00;80.20;;;;;;10493839;28;20219;-77
2021/05/14 17:38:37;;;;;;;1.10;1.10;;;17.00;80.70;;;;;;10475323;28;20280;-77
2021/05/14 17:43:42;;;;;;;1.07;1.07;;;17.10;83.40;;;;;;10475666;28;20295;-77
2021/05/14 17:48:45;;;;;;;1.30;1.20;;;17.10;78.50;;;;;;10492845;28;20193;-77
2021/05/14 17:53:48;;;;;;;1.23;1.00;;;17.10;81.40;;;;;;10498681;28;20220;-77
2021/05/14 17:58:51;;;;;;;2.70;1.13;;;17.10;81.70;;;;;;10492273;28;20196;-77
2021/05/14 18:03:53;;;;;;;1.40;1.30;;;17.00;81.80;;;;;;10493154;28;20219;-77
2021/05/14 18:08:55;;;;;;;0.90;0.90;;;16.90;80.20;;;;;;10493718;28;20200;-77
2021/05/14 18:13:57;;;;;;;1.10;1.10;;;16.90;78.30;;;;;;10481506;28;20220;-77
2021/05/14 18:19:33;;;;;;;2.30;1.27;;;16.70;79.20;;;;;;10499243;28;20204;-77
2021/05/14 18:24:26;;;;;;;1.40;1.30;;;16.60;78.70;;;;;;10500648;28;20206;-77
2021/05/14 18:29:27;;;;;;;1.07;1.03;;;16.40;76.90;;;;;;10482425;28;20227;-77
2021/05/14 18:34:30;;;;;;;1.00;1.00;;;16.30;80.40;;;;;;10504367;28;20224;-77
2021/05/14 18:39:32;;;;;;;1.53;1.00;;;16.20;80.10;;;;;;10492343;28;20274;-77
2021/05/14 18:44:33;;;;;;;1.10;1.10;;;16.10;80.90;;;;;;10500074;28;20193;-77
2021/05/14 18:49:36;;;;;;;1.40;1.30;;;16.00;81.00;;;;;;10499610;28;20228;-77
2021/05/14 18:54:38;;;;;;;1.80;1.20;;;15.90;83.20;;;;;;10499698;28;20251;-77
2021/05/14 18:59:39;;;;;;;1.30;1.20;;;15.80;83.90;;;;;;10498446;28;20220;-77
2021/05/14 19:04:42;;;;;;;1.10;1.10;;;15.70;87.90;;;;;;10481336;28;20590;-77
2021/05/14 19:09:43;;;;;;;1.70;1.40;;;15.70;85.10;;;;;;10498663;28;20235;-77
2021/05/14 19:14:46;;;;;;;1.23;1.13;;;15.60;86.50;;;;;;10499180;28;20699;-77
2021/05/14 19:19:49;;;;;;;1.60;1.50;;;15.50;83.10;;;;;;10480939;28;20311;-77
2021/05/14 19:24:55;;;;;;;1.30;1.30;;;15.40;84.50;;;;;;10502551;28;20687;-77
2021/05/14 19:35:27;;;;;;;1.10;1.10;;;15.20;83.80;;;;;;10496891;28;20691;-77
2021/05/14 19:51:19;;;;;;;2.90;1.20;;;15.10;85.10;;;;;;10464094;28;20318;-77
2021/05/14 19:56:21;;;;;;;1.50;1.43;;;15.00;85.10;;;;;;10506076;28;20224;-77
2021/05/14 20:01:23;;;;;;;1.50;1.40;;;14.90;86.20;;;;;;10497012;28;20220;-77
2021/05/14 20:06:25;;;;;;;1.10;1.10;;;14.90;85.90;;;;;;10478717;28;20196;-77
2021/05/14 20:11:27;;;;;;;1.00;1.00;;;14.80;84.90;;;;;;10496731;28;20220;-77
2021/05/14 20:16:28;;;;;;;1.20;1.10;;;14.70;87.00;;;;;;10495931;28;20234;-77
2021/05/14 20:21:31;;;;;;;1.17;1.07;;;14.60;85.70;;;;;;10496332;28;20228;-77
2021/05/14 20:26:33;;;;;;;1.20;1.20;;;14.60;86.30;;;;;;10496366;28;20228;-77
2021/05/14 20:31:35;;;;;;;1.00;1.00;;;14.50;86.30;;;;;;10493847;28;20290;-77
2021/05/14 20:36:44;;;;;;;1.00;1.00;;;14.50;85.20;;;;;;10490112;28;20220;-77
2021/05/14 20:41:46;;;;;;;1.43;1.33;;;14.50;85.40;;;;;;10495253;28;20230;-77
2021/05/14 20:46:48;;;;;;;1.27;1.10;;;14.40;84.80;;;;;;10473064;28;20189;-77
2021/05/14 20:51:52;;;;;;;1.30;1.20;;;14.30;85.00;;;;;;10490865;28;20236;-77
2021/05/14 20:56:56;;;;;;;1.07;1.00;;;14.20;85.70;;;;;;10471826;28;20212;-77
2021/05/14 21:01:57;;;;;;;1.00;1.00;;;14.10;86.40;;;;;;10473388;28;20220;-77
2021/05/14 21:07:03;;;;;;;1.47;1.10;;;14.10;85.60;;;;;;10456417;28;20197;-77
2021/05/14 21:12:05;;;;;;;2.37;1.60;;;14.00;85.90;;;;;;10475644;28;20227;-77
2021/05/14 21:17:12;;;;;;;1.47;1.20;;;14.00;85.70;;;;;;10475919;28;20242;-78
2021/05/14 21:22:17;;;;;;;1.20;1.10;;;13.90;86.40;;;;;;10478474;28;20224;-77
2021/05/14 21:27:18;;;;;;;1.40;1.27;;;13.90;86.60;;;;;;10493907;28;20212;-77
2021/05/14 21:32:20;;;;;;;1.73;1.60;;;13.90;88.40;;;;;;10491959;28;20299;-77
2021/05/14 21:37:23;;;;;;;1.13;1.03;;;13.90;87.10;;;;;;10491927;28;20224;-77
2021/05/14 21:42:26;;;;;;;1.13;1.03;;;14.00;87.80;;;;;;10512152;28;20711;-77
2021/05/14 21:47:30;;;;;;;0.80;0.80;;;14.00;86.30;;;;;;10508458;28;20216;-77
2021/05/14 21:52:34;;;;;;;1.13;0.97;;;14.00;86.80;;;;;;10486652;22;20593;-78
2021/05/14 21:57:37;;;;;;;1.50;1.00;;;14.00;87.70;;;;;;10421227;28;20224;-78
2021/05/14 22:02:39;;;;;;;1.30;1.20;;;14.10;88.00;;;;;;10419028;28;20300;-79
2021/05/14 22:07:41;;;;;;;1.50;1.40;;;14.10;88.90;;;;;;10413640;28;20213;-78
2021/05/14 22:12:43;;;;;;;1.50;1.40;;;14.10;88.10;;;;;;10424394;28;20729;-78
2021/05/14 22:17:45;;;;;;;1.20;1.10;;;14.10;90.10;;;;;;10412940;28;20205;-78
2021/05/14 22:22:49;;;;;;;1.20;1.17;;;14.10;89.40;;;;;;10416676;28;20279;-78
2021/05/14 22:27:51;;;;;;;1.73;1.30;;;14.20;88.20;;;;;;10420924;28;20292;-78
2021/05/14 22:32:53;;;;;;;2.17;1.97;;;14.20;89.30;;;;;;10418915;28;20222;-78
2021/05/14 22:37:56;;;;;;;1.67;1.50;;;14.20;88.70;;;;;;10418469;28;20210;-78
2021/05/14 22:42:57;;;;;;;4.10;1.63;;;14.20;89.10;;;;;;10418781;28;20214;-78
2021/05/14 22:47:59;;;;;;;1.40;1.30;;;14.20;89.30;;;;;;10418411;28;20205;-78
2021/05/14 22:53:01;;;;;;;1.13;1.13;;;14.10;88.60;;;;;;10417837;28;20221;-77
2021/05/14 22:58:03;;;;;;;1.30;1.20;;;14.10;89.50;;;;;;10418162;28;20206;-77
2021/05/14 23:03:05;;;;;;;1.50;1.40;;;14.00;89.40;;;;;;10417216;28;20451;-77
2021/05/14 23:08:08;;;;;;;1.20;1.10;;;14.00;90.10;;;;;;10417567;28;20201;-78
2021/05/14 23:13:09;;;;;;;1.37;1.27;;;14.00;90.10;;;;;;10418555;28;20246;-78
2021/05/14 23:18:12;;;;;;;1.20;1.20;;;13.90;89.00;;;;;;10416594;28;20254;-77
2021/05/14 23:23:15;;;;;;;1.40;1.30;;;13.90;89.50;;;;;;10417258;28;20222;-78
2021/05/14 23:28:18;;;;;;;1.23;1.13;;;13.90;89.50;;;;;;10418426;28;20205;-77
2021/05/14 23:33:20;;;;;;;1.67;1.30;;;13.90;89.70;;;;;;10417826;28;20281;-77
2021/05/14 23:38:23;;;;;;;2.10;1.53;;;13.90;89.90;;;;;;10418169;28;20201;-77
2021/05/14 23:43:24;;;;;;;1.10;1.10;;;13.90;90.40;;;;;;10417415;28;20268;-77
2021/05/14 23:48:26;;;;;;;1.57;1.47;;;13.80;90.50;;;;;;10417062;28;20255;-78
2021/05/14 23:53:28;;;;;;;1.40;1.30;;;13.90;89.40;;;;;;10416508;28;20252;-78
2021/05/14 23:58:30;;;;;;;1.30;1.20;;;13.80;89.50;;;;;;10414777;28;20204;-78
